Time;durP1;ratioP1;P1;durP2;ratioP2;P2;SDS_P1;SDS_P2;PMS_P1;PMS_P2;Temp;Humidity;BMP_temperature;BMP_pressure;BME280_temperature;BME280_humidity;BME280_pressure;Samples;Min_cycle;Max_cycle;Signal;HPM_P1;HPM_P2
2023/08/20 00:02:09;;;;;;;10.73;9.35;;;24.30;94.30;;;25.94;59.13;97990.09;5030768;28;20064;-60
2023/08/20 00:04:37;;;;;;;11.15;9.25;;;24.20;94.90;;;25.93;59.38;97996.63;5023780;28;20416;-60
2023/08/20 00:07:06;;;;;;;11.68;10.35;;;24.20;95.10;;;25.92;59.66;97995.78;5029856;28;20038;-61
2023/08/20 00:09:34;;;;;;;10.63;9.57;;;24.30;95.20;;;25.95;59.71;97990.91;5030764;28;20045;-60
2023/08/20 00:12:03;;;;;;;10.02;9.05;;;24.30;94.80;;;25.96;59.69;97995.28;5030592;28;20038;-61
2023/08/20 00:15:06;;;;;;;10.07;9.07;;;24.30;94.70;;;25.95;59.59;97997.19;5030949;28;20111;-60
2023/08/20 00:17:37;;;;;;;11.85;9.80;;;24.40;95.10;;;25.96;59.33;97998.00;5030849;28;20046;-60
2023/08/20 00:20:12;;;;;;;11.63;10.15;;;24.30;95.10;;;25.95;59.87;97996.38;5030573;28;20050;-61
2023/08/20 00:22:45;;;;;;;10.52;9.43;;;24.30;95.20;;;25.96;59.46;97996.13;5022202;28;20049;-61
2023/08/20 00:25:15;;;;;;;10.98;9.35;;;24.30;95.00;;;25.97;59.44;98000.47;5034683;28;20037;-61
2023/08/20 00:27:43;;;;;;;16.75;10.50;;;24.30;95.00;;;25.96;59.42;97998.84;5034431;28;20042;-60
2023/08/20 00:30:12;;;;;;;13.13;9.20;;;24.30;95.00;;;25.92;59.65;97995.78;5032838;28;20042;-60
2023/08/20 00:32:39;;;;;;;10.35;9.35;;;24.30;95.40;;;25.92;59.95;97994.97;5033342;28;20045;-61
2023/08/20 00:35:07;;;;;;;11.82;9.90;;;24.30;95.40;;;25.90;60.06;97991.63;5032763;28;20060;-61
2023/08/20 00:37:36;;;;;;;10.32;9.27;;;24.30;95.60;;;25.89;59.61;97995.44;5031913;28;20053;-61
2023/08/20 00:40:05;;;;;;;10.75;9.20;;;24.20;95.70;;;25.88;60.20;98010.97;5033019;28;20037;-61
2023/08/20 00:42:33;;;;;;;11.40;10.27;;;24.20;95.60;;;25.86;60.24;98006.84;5033956;28;20045;-61
2023/08/20 00:45:02;;;;;;;11.30;10.18;;;24.20;95.90;;;25.85;59.84;98007.94;5032569;28;20038;-61
2023/08/20 00:47:30;;;;;;;10.43;9.32;;;24.20;96.00;;;25.80;60.43;98003.22;5016978;28;20054;-60
2023/08/20 00:49:58;;;;;;;12.80;10.13;;;24.20;96.70;;;25.79;60.09;98006.22;5033000;28;20045;-61
2023/08/20 00:52:25;;;;;;;12.02;10.27;;;24.20;96.70;;;25.78;60.09;98007.28;5040993;28;20061;-60
2023/08/20 00:54:53;;;;;;;13.55;9.88;;;24.10;96.80;;;25.77;60.18;98002.91;5033234;28;20041;-60
2023/08/20 00:57:22;;;;;;;12.20;10.43;;;24.10;96.90;;;25.74;60.33;98002.34;5034053;28;20042;-60
2023/08/20 00:59:50;;;;;;;12.55;10.32;;;24.10;97.10;;;25.74;60.44;98002.34;5040695;28;20511;-60
2023/08/20 01:02:18;;;;;;;12.07;9.57;;;24.10;97.00;;;25.74;60.61;98007.78;5040491;28;20425;-61
2023/08/20 01:04:48;;;;;;;11.68;9.90;;;24.10;96.90;;;25.75;60.74;98003.16;5033828;28;20029;-61
2023/08/20 01:07:30;;;;;;;11.65;10.18;;;24.10;96.90;;;25.74;60.43;98006.94;5016188;28;20064;-61
2023/08/20 01:10:17;;;;;;;12.63;10.55;;;24.10;97.30;;;25.70;60.62;98005.81;5033516;28;20034;-60
2023/08/20 01:12:46;;;;;;;10.02;9.02;;;24.00;97.90;;;25.65;60.99;98009.28;5025330;28;20429;-60
2023/08/20 01:15:14;;;;;;;11.15;9.25;;;24.00;98.20;;;25.65;60.75;98001.09;5032959;28;20050;-61
2023/08/20 01:17:45;;;;;;;11.45;10.23;;;24.00;98.00;;;25.65;61.09;98002.97;5032106;28;20041;-60
2023/08/20 01:20:15;;;;;;;11.93;9.88;;;24.00;98.00;;;25.62;61.14;98001.59;5033555;28;20041;-61
2023/08/20 01:23:10;;;;;;;14.80;10.13;;;24.00;98.10;;;25.57;61.25;98004.25;5024497;28;20512;-60
2023/08/20 01:25:50;;;;;;;12.02;10.75;;;23.90;99.60;;;25.59;60.92;98001.25;5032300;28;20394;-60
2023/08/20 01:28:29;;;;;;;10.55;9.48;;;24.00;98.70;;;25.60;61.24;98008.38;5032368;28;20037;-60
2023/08/20 01:31:00;;;;;;;13.77;11.35;;;24.00;98.30;;;25.58;61.34;98008.63;5031993;28;20038;-60
2023/08/20 01:33:28;;;;;;;10.73;9.38;;;23.90;98.50;;;25.58;61.06;98007.81;5031785;28;20052;-60
2023/08/20 01:35:58;;;;;;;11.93;9.88;;;23.90;98.40;;;25.53;61.44;98009.38;5015305;28;20056;-60
2023/08/20 01:38:26;;;;;;;11.50;9.80;;;23.90;98.70;;;25.52;61.50;98007.72;5032477;28;20046;-61
2023/08/20 01:40:54;;;;;;;12.07;10.80;;;23.90;98.70;;;25.52;61.55;98013.16;5031981;28;20052;-60
2023/08/20 01:43:21;;;;;;;11.90;10.13;;;23.90;98.70;;;25.51;61.30;98010.69;5031869;28;20057;-53
2023/08/20 01:45:49;;;;;;;13.35;10.52;;;23.90;98.90;;;25.50;61.25;98011.78;5031860;28;20037;-50
2023/08/20 01:48:17;;;;;;;10.65;9.63;;;23.90;99.10;;;25.50;61.32;98014.50;5033079;28;20057;-51
2023/08/20 01:50:45;;;;;;;12.60;11.30;;;23.90;98.80;;;25.50;61.34;98009.88;5024873;28;20501;-51
2023/08/20 01:53:14;;;;;;;12.65;10.30;;;23.90;98.50;;;25.46;61.76;98011.44;5032529;28;20092;-49
2023/08/20 01:55:42;;;;;;;13.05;11.68;;;23.80;98.90;;;25.45;61.25;98012.50;5032705;28;20413;-53
2023/08/20 01:58:10;;;;;;;12.90;11.38;;;23.80;99.30;;;25.44;61.56;98013.59;5031557;28;20056;-49
2023/08/20 02:00:38;;;;;;;12.30;10.98;;;23.80;99.10;;;25.44;61.50;98015.50;5030824;28;20064;-49
2023/08/20 02:03:06;;;;;;;13.30;11.35;;;23.80;99.20;;;25.43;61.50;98017.38;5032609;28;20052;-51
2023/08/20 02:05:34;;;;;;;12.82;11.40;;;23.80;99.20;;;25.42;61.59;98013.03;5032647;28;20041;-53
2023/08/20 02:08:02;;;;;;;20.70;11.77;;;23.70;99.30;;;25.40;61.40;98020.63;5032511;28;20041;-53
2023/08/20 02:10:32;;;;;;;12.70;10.68;;;23.70;99.30;;;25.40;61.67;98030.69;5030789;28;20064;-51
2023/08/20 02:13:00;;;;;;;12.40;11.10;;;23.70;99.20;;;25.36;61.72;98024.91;5032868;28;20037;-51
2023/08/20 02:15:27;;;;;;;13.70;11.00;;;23.70;99.40;;;25.32;61.91;98018.31;5031252;28;20053;-52
2023/08/20 02:17:57;;;;;;;13.05;11.70;;;23.70;99.80;;;25.30;61.88;98026.72;5032378;28;20037;-52
2023/08/20 02:20:26;;;;;;;12.32;11.07;;;23.60;99.90;;;25.29;62.09;98022.34;5030919;28;20053;-53
2023/08/20 02:22:54;;;;;;;14.32;12.30;;;23.60;99.90;;;25.28;62.34;98014.41;5022916;28;20056;-53
2023/08/20 02:25:23;;;;;;;13.20;11.52;;;23.60;99.90;;;25.24;62.14;98019.56;5031018;28;20045;-52
2023/08/20 02:27:55;;;;;;;13.50;11.43;;;23.60;99.90;;;25.22;62.15;98016.25;5031482;28;20049;-52
2023/08/20 02:30:23;;;;;;;13.35;11.35;;;23.50;99.90;;;25.22;62.21;98016.25;5031976;28;20524;-50
2023/08/20 02:32:51;;;;;;;13.68;12.32;;;23.50;99.90;;;25.20;62.74;98012.88;5030912;28;20045;-48
2023/08/20 02:35:19;;;;;;;14.85;11.25;;;23.50;99.90;;;25.17;62.76;98016.13;5032284;28;20404;-55
2023/08/20 02:37:50;;;;;;;15.63;13.27;;;23.50;99.90;;;25.16;62.76;98017.19;5039027;28;20045;-50
2023/08/20 02:40:18;;;;;;;12.85;11.05;;;23.50;99.90;;;25.14;62.49;98017.44;5030484;28;20057;-52
2023/08/20 02:42:45;;;;;;;13.32;10.85;;;23.50;99.90;;;25.12;62.51;98019.56;5038910;28;20042;-51
2023/08/20 02:45:13;;;;;;;14.20;11.05;;;23.50;99.90;;;25.12;62.49;98018.75;5030690;28;20331;-50
2023/08/20 02:47:40;;;;;;;12.43;10.95;;;23.40;99.90;;;25.10;62.89;98018.16;5038695;28;20049;-52
2023/08/20 02:50:08;;;;;;;14.77;11.30;;;23.40;99.90;;;25.08;63.04;98012.97;5029832;28;20501;-49
2023/08/20 02:52:37;;;;;;;13.82;10.65;;;23.40;99.90;;;25.05;62.68;98010.75;5030442;28;20492;-51
2023/08/20 02:55:04;;;;;;;12.50;11.27;;;23.40;99.90;;;25.05;62.86;98002.56;5039007;28;20451;-49
2023/08/20 02:57:32;;;;;;;13.55;11.27;;;23.40;99.90;;;25.01;62.92;98006.88;5030085;28;20077;-49
2023/08/20 03:00:00;;;;;;;12.02;10.77;;;23.30;99.90;;;24.98;63.32;98003.81;5038496;28;20052;-51
2023/08/20 03:02:28;;;;;;;14.50;12.27;;;23.30;99.90;;;24.94;63.57;97996.13;5029555;28;20045;-51
2023/08/20 03:04:56;;;;;;;13.40;12.02;;;23.30;99.90;;;24.92;63.58;97998.25;5030571;28;20453;-50
2023/08/20 03:07:24;;;;;;;14.05;12.00;;;23.30;99.90;;;24.90;63.62;97996.84;5030173;28;20049;-50
2023/08/20 03:09:52;;;;;;;14.18;12.50;;;23.30;99.90;;;24.90;63.88;97994.13;5029815;28;20068;-52
2023/08/20 03:12:19;;;;;;;12.70;11.40;;;23.20;99.90;;;24.92;63.79;97998.25;5030042;28;20053;-50
2023/08/20 03:14:47;;;;;;;14.23;11.95;;;23.30;99.90;;;24.92;63.82;97992.81;5029703;28;20046;-50
2023/08/20 03:17:15;;;;;;;13.32;11.93;;;23.30;99.90;;;24.91;63.85;98001.22;5030173;28;20042;-51
2023/08/20 03:19:58;;;;;;;16.05;11.77;;;23.30;99.90;;;24.90;63.75;97994.97;5030430;28;20046;-52
2023/08/20 03:22:27;;;;;;;15.00;12.95;;;23.30;99.90;;;24.93;64.13;97993.63;5029793;28;20045;-48
2023/08/20 03:24:54;;;;;;;13.93;11.57;;;23.30;99.90;;;24.95;63.90;97996.94;5038105;28;20044;-49
2023/08/20 03:27:22;;;;;;;12.30;11.00;;;23.30;99.90;;;24.94;63.54;97990.66;5031533;28;20068;-51
2023/08/20 03:29:51;;;;;;;14.10;12.57;;;23.40;99.90;;;24.95;63.99;97994.22;5031067;28;20041;-52
2023/08/20 03:32:20;;;;;;;16.63;12.23;;;23.30;99.90;;;24.95;63.69;97997.78;5038156;28;20511;-51
2023/08/20 03:34:49;;;;;;;12.52;11.10;;;23.30;99.90;;;24.95;63.62;98002.38;5029797;28;20056;-50
2023/08/20 03:37:19;;;;;;;15.30;13.70;;;23.30;99.90;;;24.92;63.58;97995.53;5025636;28;20060;-50
2023/08/20 03:39:46;;;;;;;14.13;11.02;;;23.30;99.90;;;24.92;63.71;97995.53;5029477;28;20061;-49
2023/08/20 03:42:14;;;;;;;12.65;11.45;;;23.30;99.90;;;24.91;63.66;97991.19;5029567;28;20398;-51
2023/08/20 03:44:42;;;;;;;13.02;11.25;;;23.30;99.90;;;24.89;63.76;97987.88;5029427;28;20509;-52
2023/08/20 03:47:09;;;;;;;14.63;11.73;;;23.20;99.90;;;24.86;63.76;97998.44;5030228;28;20054;-51
2023/08/20 03:49:37;;;;;;;17.92;11.77;;;23.20;99.90;;;24.83;63.70;97998.91;5030714;28;20045;-51
2023/08/20 03:52:06;;;;;;;14.50;11.30;;;23.10;99.90;;;24.82;63.83;98000.00;5029657;28;20408;-52
2023/08/20 03:54:34;;;;;;;14.13;11.35;;;23.10;99.90;;;24.81;63.60;98003.78;5029674;28;20045;-49
2023/08/20 03:57:02;;;;;;;17.15;10.80;;;23.10;99.90;;;24.77;63.80;97997.97;5029447;28;20053;-49
2023/08/20 03:59:30;;;;;;;12.80;11.48;;;23.00;99.90;;;24.75;63.80;98000.13;5033489;28;20505;-50
2023/08/20 04:01:59;;;;;;;13.27;10.45;;;23.00;99.90;;;24.70;63.86;98000.03;5033049;28;20421;-53
2023/08/20 04:04:26;;;;;;;13.02;11.73;;;23.00;99.90;;;24.68;63.83;98000.28;5035055;28;20375;-50
2023/08/20 04:06:54;;;;;;;13.57;11.48;;;23.00;99.90;;;24.65;63.53;98000.75;5034830;28;20045;-50
2023/08/20 04:09:22;;;;;;;12.55;11.27;;;23.00;99.90;;;24.64;63.50;98001.84;5034670;28;20042;-52
2023/08/20 04:11:50;;;;;;;12.75;11.43;;;23.00;99.90;;;24.64;63.60;98011.88;5033884;28;20398;-50
2023/08/20 04:14:17;;;;;;;13.27;11.98;;;22.90;99.90;;;24.59;63.80;98009.09;5032925;28;20045;-52
2023/08/20 04:16:45;;;;;;;14.30;12.40;;;22.90;99.90;;;24.59;63.83;98019.97;5033110;28;20054;-51
2023/08/20 04:19:13;;;;;;;15.50;12.10;;;22.80;99.90;;;24.55;64.00;98020.44;5034567;28;20409;-52
2023/08/20 04:21:44;;;;;;;15.15;11.20;;;22.80;99.90;;;24.52;63.86;98015.50;5033473;28;20049;-51
2023/08/20 04:24:11;;;;;;;11.90;10.75;;;22.80;99.90;;;24.51;63.77;98022.00;5033128;28;20041;-50
2023/08/20 04:26:40;;;;;;;11.82;10.00;;;22.80;99.90;;;24.46;63.92;98021.84;5032961;28;20045;-50
2023/08/20 04:29:08;;;;;;;13.27;11.88;;;22.70;99.90;;;24.44;63.80;98021.28;5034341;28;20037;-50
2023/08/20 04:31:35;;;;;;;14.07;11.48;;;22.70;99.90;;;24.44;64.04;98026.72;5032545;28;20050;-49
2023/08/20 04:34:08;;;;;;;12.93;11.80;;;22.70;99.90;;;24.42;64.00;98023.41;5033193;28;20488;-49
2023/08/20 04:36:43;;;;;;;13.77;11.07;;;22.70;99.90;;;24.42;64.13;98025.31;5025602;28;20061;-51
2023/08/20 04:39:11;;;;;;;11.73;10.43;;;22.70;99.90;;;24.39;63.91;98023.91;5033420;28;20057;-49
2023/08/20 04:41:44;;;;;;;11.85;10.57;;;22.70;99.90;;;24.38;63.90;98033.13;5033908;28;20049;-52
2023/08/20 04:44:15;;;;;;;15.98;11.90;;;22.60;99.90;;;24.38;63.95;98041.28;5032663;28;20531;-49
2023/08/20 04:46:44;;;;;;;13.85;10.88;;;22.60;99.90;;;24.35;64.33;98033.63;5032085;28;20049;-48
2023/08/20 04:49:13;;;;;;;12.93;11.35;;;22.60;99.90;;;24.32;64.40;98040.34;5024701;28;20040;-51
2023/08/20 04:51:40;;;;;;;14.15;11.52;;;22.60;99.90;;;24.32;64.30;98037.63;5033761;28;20052;-51
2023/08/20 04:54:08;;;;;;;19.90;12.25;;;22.60;99.90;;;24.32;64.51;98032.19;5032819;28;20042;-51
2023/08/20 04:56:35;;;;;;;13.95;12.13;;;22.70;99.90;;;24.34;64.45;98035.50;5016533;28;20401;-47
2023/08/20 04:59:03;;;;;;;15.77;12.60;;;22.70;99.90;;;24.35;64.56;98029.00;5040449;28;20133;-53
2023/08/20 05:02:03;;;;;;;15.57;12.02;;;22.70;99.90;;;24.36;64.69;98019.75;5035943;28;20053;-52
2023/08/20 05:04:40;;;;;;;12.27;10.80;;;22.70;99.90;;;24.37;64.57;98018.72;5040235;28;20056;-51
2023/08/20 05:07:09;;;;;;;13.63;11.10;;;22.70;99.90;;;24.35;64.56;98020.84;5040753;28;20516;-48
2023/08/20 05:09:36;;;;;;;13.50;12.13;;;22.70;99.90;;;24.36;64.86;98024.38;5031220;28;20509;-50
2023/08/20 05:12:06;;;;;;;15.85;12.68;;;22.70;99.90;;;24.38;64.90;98033.94;5016118;28;20045;-52
2023/08/20 05:14:35;;;;;;;13.50;11.32;;;22.70;99.90;;;24.41;64.72;98037.25;5032124;28;20052;-51
2023/08/20 05:17:02;;;;;;;13.68;11.63;;;22.70;99.90;;;24.43;64.79;98033.25;5025496;28;20052;-53
2023/08/20 05:19:30;;;;;;;13.82;12.27;;;22.80;99.90;;;24.45;64.91;98025.66;5031766;28;20045;-50
2023/08/20 05:21:59;;;;;;;13.25;11.82;;;22.80;99.90;;;24.46;64.85;98021.84;5033115;28;20412;-51
2023/08/20 05:24:30;;;;;;;13.23;11.55;;;22.90;99.90;;;24.49;64.78;98026.00;5048878;28;20045;-53
2023/08/20 05:27:24;;;;;;;16.45;12.05;;;22.90;99.90;;;24.49;64.76;98032.28;5031619;28;20041;-52
2023/08/20 05:29:52;;;;;;;12.65;11.35;;;23.00;99.90;;;24.55;64.84;98035.94;5028982;28;20054;-48
2023/08/20 05:32:21;;;;;;;15.85;11.98;;;23.00;99.90;;;24.56;64.88;98043.88;5031324;28;20417;-53
2023/08/20 05:34:48;;;;;;;12.88;11.57;;;23.00;99.90;;;24.58;64.96;98040.06;5032964;28;20052;-51
2023/08/20 05:37:16;;;;;;;16.45;13.05;;;23.00;99.90;;;24.62;65.01;98042.09;5023522;28;20046;-51
2023/08/20 05:39:44;;;;;;;14.77;12.70;;;23.10;99.90;;;24.65;64.85;98044.31;5039695;28;20053;-51
2023/08/20 05:42:13;;;;;;;12.32;10.73;;;23.20;99.90;;;24.72;65.29;98045.00;5031510;28;20072;-52
2023/08/20 05:44:46;;;;;;;15.80;13.10;;;23.20;99.90;;;24.79;65.07;98044.84;5040260;28;20049;-52
2023/08/20 05:47:18;;;;;;;16.20;12.15;;;23.30;99.90;;;24.85;64.92;98038.41;5031560;28;20046;-52
2023/08/20 05:49:45;;;;;;;14.35;12.32;;;23.40;99.90;;;24.91;64.82;98042.91;5032513;28;20045;-53
2023/08/20 05:52:13;;;;;;;17.08;13.77;;;23.50;99.90;;;24.94;64.58;98053.28;5032249;28;20426;-52
2023/08/20 05:54:43;;;;;;;14.07;12.65;;;23.50;99.90;;;24.97;64.63;98052.00;5031298;28;20052;-52
2023/08/20 05:57:11;;;;;;;17.98;13.70;;;23.50;99.90;;;25.00;64.81;98050.69;5031923;28;20046;-53
2023/08/20 05:59:38;;;;;;;14.55;13.13;;;23.60;99.90;;;25.02;64.44;98054.81;5032858;28;20057;-53
2023/08/20 06:02:06;;;;;;;14.63;13.23;;;23.60;99.90;;;25.02;64.50;98062.97;5039585;28;20041;-53
2023/08/20 06:04:34;;;;;;;13.90;12.50;;;23.60;99.90;;;25.05;64.64;98067.94;5024334;28;20053;-53
2023/08/20 06:07:01;;;;;;;20.10;12.93;;;23.60;99.90;;;25.09;64.54;98071.00;5032501;28;20048;-50
2023/08/20 06:09:29;;;;;;;15.52;13.95;;;23.70;99.90;;;25.11;64.53;98068.88;5032276;28;20056;-52
2023/08/20 06:11:57;;;;;;;16.08;12.88;;;23.70;99.90;;;25.13;64.69;98083.88;5032254;28;20515;-52
2023/08/20 06:14:24;;;;;;;16.13;12.50;;;23.80;99.90;;;25.12;64.28;98074.03;5029509;28;20049;-52
2023/08/20 06:16:52;;;;;;;15.75;12.52;;;23.80;99.90;;;25.21;64.33;98079.94;5029435;28;20054;-52
2023/08/20 06:19:19;;;;;;;12.52;11.32;;;23.80;99.90;;;25.24;64.06;98074.03;5031313;28;20052;-52
2023/08/20 06:21:47;;;;;;;13.00;11.70;;;23.80;99.90;;;25.26;63.85;98080.06;5030446;28;20068;-52
2023/08/20 06:24:15;;;;;;;13.82;11.80;;;23.80;99.90;;;25.30;63.43;98086.69;5031383;28;20076;-49
2023/08/20 06:26:44;;;;;;;18.60;12.02;;;23.90;99.90;;;25.37;63.66;98085.69;5031400;28;20053;-49
2023/08/20 06:29:12;;;;;;;15.55;12.02;;;23.90;99.90;;;25.44;63.90;98081.72;5022534;28;20045;-53
2023/08/20 06:31:40;;;;;;;11.43;10.20;;;24.00;99.90;;;25.51;63.16;98079.69;5030034;28;20057;-52
2023/08/20 06:34:08;;;;;;;14.20;11.05;;;24.10;99.90;;;25.61;63.45;98079.00;5031017;28;20041;-52
2023/08/20 06:36:36;;;;;;;13.48;11.85;;;24.30;99.90;;;25.65;63.59;98088.34;5031094;28;20053;-52
2023/08/20 06:39:04;;;;;;;13.65;12.25;;;24.40;99.90;;;25.73;64.16;98081.66;5030771;28;20045;-53
2023/08/20 06:41:31;;;;;;;14.43;11.40;;;24.50;99.90;;;25.78;63.59;98081.72;5030417;28;20536;-52
2023/08/20 06:43:59;;;;;;;14.45;11.63;;;24.50;99.90;;;25.80;63.31;98087.75;5029973;28;20057;-53
2023/08/20 06:46:26;;;;;;;13.68;11.90;;;24.50;99.90;;;25.80;63.24;98085.00;5030951;28;20052;-53
2023/08/20 06:48:54;;;;;;;12.20;10.40;;;24.50;99.90;;;25.78;62.50;98094.53;5030724;28;20289;-54
2023/08/20 06:51:22;;;;;;;11.82;10.63;;;24.40;98.80;;;25.79;62.03;98101.66;5030886;28;20050;-52
2023/08/20 06:53:50;;;;;;;14.15;10.35;;;24.40;97.70;;;25.78;62.25;98103.53;5037253;28;20528;-48
2023/08/20 06:56:17;;;;;;;9.93;8.93;;;24.40;96.50;;;25.66;61.61;98103.63;5030754;28;20273;-53
2023/08/20 06:58:45;;;;;;;11.05;9.82;;;24.10;95.60;;;25.59;61.67;98099.41;5030793;28;20057;-50
2023/08/20 07:01:13;;;;;;;12.70;10.73;;;24.10;97.00;;;25.46;61.98;98092.38;5022521;28;20053;-50
2023/08/20 07:03:43;;;;;;;15.10;10.88;;;24.00;97.10;;;25.43;61.97;98093.69;5030579;28;20049;-52
2023/08/20 07:06:11;;;;;;;11.23;10.13;;;23.90;97.90;;;25.34;61.82;98098.72;5030421;28;20088;-52
2023/08/20 07:08:39;;;;;;;11.68;10.23;;;23.90;96.50;;;25.36;61.96;98090.31;5029859;28;20052;-51
2023/08/20 07:11:07;;;;;;;10.93;9.65;;;23.80;97.30;;;25.30;62.10;98099.44;5030027;28;20033;-52
2023/08/20 07:13:36;;;;;;;11.40;10.18;;;23.80;97.90;;;25.26;62.20;98096.41;5030856;28;20068;-52
2023/08/20 07:16:04;;;;;;;11.23;9.85;;;23.80;98.60;;;25.32;62.60;98110.97;5030215;28;20060;-54
2023/08/20 07:18:31;;;;;;;14.40;9.60;;;23.90;98.70;;;25.38;62.25;98112.69;5030383;28;20052;-52
2023/08/20 07:20:59;;;;;;;11.13;9.65;;;24.00;98.30;;;25.39;62.04;98119.78;5028332;28;20053;-51
2023/08/20 07:23:27;;;;;;;10.98;9.65;;;24.10;96.60;;;25.39;61.70;98108.06;5029379;28;20049;-52
2023/08/20 07:26:06;;;;;;;11.88;9.23;;;24.10;97.00;;;25.46;61.86;98115.00;5028637;28;20060;-50
2023/08/20 07:31:21;;;;;;;10.88;8.93;;;24.20;95.10;;;25.46;61.85;98130.53;5023087;28;20064;-48
2023/08/20 07:33:50;;;;;;;10.27;9.23;;;24.20;95.60;;;25.52;61.89;98130.38;5029338;28;20037;-51
2023/08/20 07:36:21;;;;;;;12.50;11.23;;;24.20;96.00;;;25.50;62.31;98124.34;5029146;28;20045;-55
2023/08/20 07:38:53;;;;;;;11.85;10.32;;;24.20;96.20;;;25.55;61.80;98126.31;5029931;28;20120;-52
2023/08/20 07:41:22;;;;;;;13.50;10.85;;;24.30;96.10;;;25.59;62.05;98134.84;5021738;28;20417;-51
2023/08/20 07:43:50;;;;;;;11.73;10.00;;;24.30;95.90;;;25.64;61.82;98130.31;5030269;28;20053;-53
2023/08/20 07:46:17;;;;;;;11.27;10.15;;;24.30;96.40;;;25.54;61.87;98127.41;5028839;28;20053;-52
2023/08/20 07:48:45;;;;;;;11.48;9.55;;;24.30;96.10;;;25.55;62.49;98131.78;5029903;28;20057;-54
2023/08/20 07:51:13;;;;;;;16.80;10.43;;;24.30;96.40;;;25.64;62.15;98132.22;5030043;28;20513;-52
2023/08/20 07:53:40;;;;;;;11.63;10.43;;;24.40;96.70;;;25.68;62.43;98133.38;5030403;28;20412;-54
2023/08/20 07:56:08;;;;;;;11.63;10.40;;;24.40;96.30;;;25.77;62.14;98134.63;5029994;28;20045;-50
2023/08/20 07:58:36;;;;;;;11.43;10.32;;;24.60;96.30;;;25.83;62.18;98140.97;5030106;28;20053;-53
2023/08/20 08:01:04;;;;;;;13.73;10.38;;;24.60;96.50;;;25.89;62.48;98135.34;5029438;28;20049;-50
2023/08/20 08:03:31;;;;;;;11.60;10.07;;;24.70;95.90;;;25.98;62.32;98141.25;5030160;28;20048;-53
2023/08/20 08:05:59;;;;;;;12.75;10.73;;;24.80;95.50;;;26.07;62.01;98144.38;5029975;28;20049;-52
2023/08/20 08:08:27;;;;;;;14.23;11.20;;;24.90;95.70;;;26.13;62.10;98137.91;5030104;28;20390;-54
2023/08/20 08:10:54;;;;;;;15.32;10.57;;;25.00;95.50;;;26.17;61.89;98139.06;5029525;28;20535;-51
2023/08/20 08:13:23;;;;;;;12.30;11.13;;;25.10;94.70;;;26.21;61.75;98142.13;5029909;28;20413;-54
2023/08/20 08:15:51;;;;;;;11.75;10.55;;;25.10;94.60;;;26.24;62.00;98138.91;5030148;28;20045;-53
2023/08/20 08:18:20;;;;;;;11.45;9.82;;;25.10;94.50;;;26.30;61.98;98135.16;5029600;28;20049;-53
2023/08/20 08:20:48;;;;;;;15.63;11.32;;;25.20;94.40;;;26.33;61.67;98137.41;5030490;28;20056;-50
2023/08/20 08:23:16;;;;;;;14.63;10.90;;;25.20;93.10;;;26.36;61.11;98136.06;5030736;28;20498;-52
2023/08/20 08:25:43;;;;;;;12.93;11.63;;;25.20;93.40;;;26.40;60.88;98137.22;5030984;28;20049;-51
2023/08/20 08:28:11;;;;;;;13.93;12.55;;;25.30;92.80;;;26.46;60.81;98147.13;5030659;28;20046;-54
2023/08/20 08:30:40;;;;;;;12.88;10.85;;;25.30;92.60;;;26.51;60.99;98148.00;5030752;28;20499;-47
2023/08/20 08:33:07;;;;;;;11.95;10.80;;;25.40;92.40;;;26.57;60.75;98145.38;5030714;28;20052;-51
2023/08/20 08:35:35;;;;;;;11.35;9.68;;;25.40;91.90;;;26.63;60.48;98144.38;5030689;28;20046;-49
2023/08/20 08:38:04;;;;;;;16.48;11.48;;;25.50;91.60;;;26.64;60.48;98140.59;5030481;28;20045;-51
2023/08/20 08:40:33;;;;;;;12.75;11.43;;;25.60;89.60;;;26.66;60.08;98143.88;5030195;28;20052;-52
2023/08/20 08:43:02;;;;;;;14.25;10.95;;;25.60;90.10;;;26.70;60.19;98148.56;5029229;28;20049;-49
2023/08/20 08:45:30;;;;;;;13.05;11.75;;;25.60;89.90;;;26.77;59.55;98148.38;5032905;28;20057;-54
2023/08/20 08:48:02;;;;;;;15.52;12.30;;;25.70;89.00;;;26.78;59.87;98144.56;5033923;28;20040;-49
2023/08/20 08:50:32;;;;;;;13.98;11.32;;;25.70;89.30;;;26.79;59.87;98142.66;5032989;28;20113;-53
2023/08/20 08:53:00;;;;;;;14.20;12.13;;;25.80;89.20;;;26.80;59.46;98145.16;5033594;28;20038;-49
2023/08/20 08:55:28;;;;;;;15.93;12.23;;;25.80;87.50;;;26.86;59.31;98144.13;5032288;28;20050;-51
2023/08/20 08:57:56;;;;;;;12.07;10.80;;;25.80;87.40;;;26.94;59.11;98155.69;5032891;28;20052;-49
2023/08/20 09:00:23;;;;;;;13.77;12.02;;;25.80;87.10;;;26.95;59.14;98149.13;5025793;28;20037;-49
2023/08/20 09:02:51;;;;;;;14.82;11.13;;;25.90;86.80;;;27.03;58.96;98154.16;5033666;28;20511;-48
2023/08/20 09:05:19;;;;;;;13.38;11.25;;;26.00;87.80;;;27.10;59.04;98152.03;5033929;28;20509;-52
2023/08/20 09:07:46;;;;;;;12.23;10.93;;;26.10;87.60;;;27.16;59.34;98159.25;5033767;28;20061;-48
2023/08/20 09:10:18;;;;;;;12.45;11.05;;;26.20;87.30;;;27.24;58.76;98147.88;5033620;28;20042;-49
2023/08/20 09:12:48;;;;;;;16.98;10.10;;;26.20;87.30;;;27.32;59.02;98149.31;5033993;28;20045;-49
2023/08/20 09:15:15;;;;;;;11.85;10.60;;;26.30;86.80;;;27.44;59.07;98146.44;5033600;28;20057;-52
2023/08/20 09:17:43;;;;;;;11.43;10.18;;;26.50;87.10;;;27.46;58.50;98141.53;5033789;28;20041;-50
2023/08/20 09:20:11;;;;;;;12.52;9.60;;;26.50;85.40;;;27.53;58.65;98142.16;5033341;28;20049;-48
2023/08/20 09:22:38;;;;;;;12.57;10.98;;;26.60;85.90;;;27.60;58.65;98141.91;5033481;28;20061;-51
2023/08/20 09:25:07;;;;;;;11.93;10.65;;;26.60;85.50;;;27.66;58.40;98149.09;5033667;28;20179;-53
2023/08/20 09:27:41;;;;;;;11.40;9.20;;;26.60;85.40;;;27.71;58.30;98157.34;5033955;28;20508;-50
2023/08/20 09:30:10;;;;;;;10.52;9.45;;;26.70;84.80;;;27.76;58.51;98153.81;5032332;28;20037;-52
2023/08/20 09:32:41;;;;;;;13.98;11.23;;;26.70;85.20;;;27.76;58.63;98149.19;5015885;28;20413;-51
2023/08/20 09:35:20;;;;;;;10.80;9.70;;;26.80;85.50;;;27.84;57.49;98150.59;5025260;28;20080;-52
2023/08/20 09:37:47;;;;;;;12.82;11.18;;;26.80;83.50;;;27.86;57.64;98148.44;5026761;28;20057;-51
2023/08/20 09:40:15;;;;;;;11.52;9.70;;;26.90;82.70;;;27.83;57.00;98151.69;5042401;28;20057;-51
2023/08/20 09:42:44;;;;;;;13.68;10.90;;;26.90;82.00;;;27.88;56.82;98146.31;5027775;28;20037;-51
2023/08/20 09:45:12;;;;;;;15.45;11.20;;;26.90;81.60;;;27.92;56.64;98146.59;5028643;28;20087;-52
2023/08/20 09:47:41;;;;;;;11.90;10.13;;;26.90;81.70;;;27.94;56.47;98149.91;5010241;28;20498;-50
2023/08/20 09:50:11;;;;;;;12.82;8.95;;;26.90;80.90;;;27.99;56.52;98152.66;5024590;28;20041;-51
2023/08/20 09:52:48;;;;;;;10.15;9.18;;;27.00;81.50;;;28.01;56.23;98148.56;5025274;28;20037;-49
2023/08/20 09:55:22;;;;;;;10.93;9.82;;;27.00;81.30;;;28.07;56.48;98153.03;5028470;28;20052;-53
2023/08/20 09:57:51;;;;;;;11.82;9.63;;;27.10;80.70;;;28.11;55.78;98149.75;5023036;28;20041;-52
2023/08/20 10:00:20;;;;;;;10.63;9.02;;;27.10;80.60;;;28.13;56.22;98148.41;5023826;28;20041;-52
2023/08/20 10:02:49;;;;;;;10.18;9.02;;;27.20;80.80;;;28.17;55.83;98151.41;5021728;28;20546;-51
2023/08/20 10:05:17;;;;;;;8.93;8.13;;;27.20;79.80;;;28.22;55.70;98154.19;5026399;28;20064;-52
2023/08/20 10:07:45;;;;;;;14.02;9.07;;;27.30;79.00;;;28.25;55.93;98151.78;5026001;28;20053;-53
2023/08/20 10:10:13;;;;;;;10.15;9.05;;;27.40;79.50;;;28.24;55.50;98154.75;5025529;28;20062;-52
2023/08/20 10:12:43;;;;;;;10.80;9.10;;;27.40;78.90;;;28.30;55.00;98150.97;5027951;28;20038;-60
2023/08/20 10:15:15;;;;;;;9.73;8.85;;;27.50;77.60;;;28.36;54.48;98143.59;5027470;28;20493;-61
2023/08/20 10:17:45;;;;;;;10.07;9.00;;;27.50;76.70;;;28.38;54.21;98161.44;5027654;28;20515;-61
2023/08/20 10:20:18;;;;;;;8.77;7.95;;;27.60;76.10;;;28.43;54.09;98146.94;5027228;28;20420;-61